Higgins Lake, Michigan
Current Conditions -  °F | °C
As of 1:40 PM on Saturday 20 Dec 2014 (Local Time) from KHTL Reporting Station
Overcast Overcast  
Wind Chill: 25°   Ceiling: 1500
Heat Index: 25°   Visibility: 10mi
Dew Point: 19°   Wind: 0mph
Humidity: 78%   Direction: NA
Pressure: 30.23"   Gusts: NA
Location:  44.48°N, 84.78°W
Report Text: KHTL 201840Z AUTO 00000KT 10SM OVC015 M04/M07 A3023 RMK AO2 T10391072
Loading
Personal Weather Stations






























Interactive Weather Map New forecast layout! Learn more

10-Day Weather Forecast

Advertisements
Track Severe Weather on mobile